Time;durP1;ratioP1;P1;durP2;ratioP2;P2;SDS_P1;SDS_P2;PMS_P1;PMS_P2;Temp;Humidity;BMP_temperature;BMP_pressure;BME280_temperature;BME280_humidity;BME280_pressure;Samples;Min_cycle;Max_cycle;Signal;HPM_P1;HPM_P2
2023/12/02 00:02:21;;;;;;;16.90;8.80;;;;;;;1.47;76.93;97935.67;109681;1251;58697;-27
2023/12/02 00:04:49;;;;;;;17.90;9.00;;;;;;;1.21;77.24;97933.19;109506;1254;71773;-27
2023/12/02 00:07:19;;;;;;;17.40;9.40;;;;;;;0.99;77.76;97935.65;109604;1251;73173;-27
2023/12/02 00:09:47;;;;;;;16.60;8.50;;;;;;;0.82;78.18;97936.17;109484;1254;71464;-27
2023/12/02 00:12:14;;;;;;;19.60;9.10;;;;;;;0.66;78.51;97924.12;109603;1251;59218;-27
2023/12/02 00:14:43;;;;;;;18.80;9.20;;;;;;;0.47;79.25;97915.65;109472;1251;58748;-27
2023/12/02 00:17:10;;;;;;;12.40;6.20;;;;;;;0.29;79.64;97911.72;109317;1251;71848;-26
2023/12/02 00:19:38;;;;;;;24.30;8.90;;;;;;;0.76;80.18;97908.64;109373;1251;73186;-28
2023/12/02 00:22:06;;;;;;;35.30;13.80;;;;;;;1.36;78.13;97911.36;109563;1254;72699;-27
2023/12/02 00:24:34;;;;;;;47.40;21.50;;;;;;;1.48;77.13;97915.80;109375;1254;58766;-27
2023/12/02 00:27:01;;;;;;;85.30;30.50;;;;;;;1.26;77.25;97913.02;109520;1251;60129;-27
2023/12/02 00:29:30;;;;;;;55.60;23.20;;;;;;;1.05;77.98;97915.30;109442;1252;71945;-29
2023/12/02 00:31:57;;;;;;;54.90;19.60;;;;;;;0.83;78.67;97911.67;109186;1254;74327;-29
2023/12/02 00:34:25;;;;;;;58.30;24.30;;;;;;;0.68;79.22;97906.55;109367;1253;71282;-28
2023/12/02 00:36:53;;;;;;;53.40;25.20;;;;;;;0.52;79.59;97913.30;109390;1254;58798;-28
2023/12/02 00:39:20;;;;;;;45.20;22.90;;;;;;;0.36;79.93;97920.69;109352;1253;58820;-28
2023/12/02 00:41:49;;;;;;;41.60;20.30;;;;;;;0.24;80.30;97921.77;109434;1254;73149;-28
2023/12/02 00:44:17;;;;;;;32.10;12.80;;;;;;;0.12;80.83;97917.29;109409;1254;73878;-27
2023/12/02 00:46:44;;;;;;;33.20;14.90;;;;;;;0.64;81.39;97922.38;109428;1254;71376;-28
2023/12/02 00:49:12;;;;;;;49.10;21.20;;;;;;;1.34;79.28;97917.64;109345;1254;60029;-28
2023/12/02 00:51:40;;;;;;;51.70;22.60;;;;;;;1.46;78.04;97911.98;109433;1253;60011;-28
2023/12/02 00:54:07;;;;;;;51.60;22.60;;;;;;;1.27;77.83;97909.49;109425;1253;71766;-28
2023/12/02 00:56:35;;;;;;;64.60;28.60;;;;;;;1.00;78.18;97910.31;109447;1252;73410;-28
2023/12/02 00:59:03;;;;;;;64.50;26.10;;;;;;;0.58;80.13;97912.45;109378;1253;72752;-29
2023/12/02 01:01:31;;;;;;;59.40;26.20;;;;;;;0.44;80.84;97916.84;109403;1252;58823;-29
2023/12/02 01:03:58;;;;;;;64.20;29.40;;;;;;;-0.03;83.43;97916.55;109439;1253;60205;-27
2023/12/02 01:06:26;;;;;;;60.20;28.70;;;;;;;-0.14;84.59;97912.59;109324;1254;72101;-27
2023/12/02 01:08:53;;;;;;;37.90;17.80;;;;;;;-0.43;85.91;97917.77;109320;1253;74374;-27
2023/12/02 01:11:21;;;;;;;74.30;33.10;;;;;;;-0.11;85.98;97912.58;109426;1253;72699;-27
2023/12/02 01:13:49;;;;;;;57.90;28.10;;;;;;;0.54;82.73;97905.48;109410;1253;58857;-27
2023/12/02 01:16:16;;;;;;;51.40;23.90;;;;;;;0.53;81.83;97907.97;109373;1253;58750;-26
2023/12/02 01:18:44;;;;;;;46.10;22.50;;;;;;;0.46;82.17;97904.76;109422;1253;73509;-27
2023/12/02 01:21:11;;;;;;;48.00;22.90;;;;;;;0.42;82.15;97897.80;109347;1253;72643;-27
2023/12/02 01:23:39;;;;;;;48.80;24.20;;;;;;;-0.02;84.16;97896.23;109447;1252;72657;-27
2023/12/02 01:26:07;;;;;;;44.50;21.80;;;;;;;-0.28;85.49;97892.88;109384;1254;59283;-26
2023/12/02 01:28:34;;;;;;;45.10;20.70;;;;;;;-0.67;87.26;97892.77;109433;1253;58765;-27
2023/12/02 01:31:02;;;;;;;31.90;14.60;;;;;;;-0.74;88.78;97891.64;109394;1253;73026;-27
2023/12/02 01:33:30;;;;;;;36.20;17.70;;;;;;;0.23;86.01;97889.55;109349;1254;73172;-26
2023/12/02 01:35:57;;;;;;;35.20;17.20;;;;;;;0.85;82.14;97888.44;109377;1253;71670;-26
2023/12/02 01:38:25;;;;;;;43.00;19.30;;;;;;;0.88;80.71;97884.90;109367;1253;58855;-26
2023/12/02 01:40:53;;;;;;;29.30;14.90;;;;;;;0.81;80.70;97884.60;109284;1254;60068;-26
2023/12/02 01:43:25;;;;;;;36.40;17.80;;;;;;;0.43;81.69;97884.64;109375;1253;71750;-26
2023/12/02 01:45:53;;;;;;;34.60;17.60;;;;;;;-0.25;84.84;97886.56;109168;1253;72868;-26
2023/12/02 01:48:22;;;;;;;34.80;17.10;;;;;;;-0.41;86.49;97883.54;109273;1253;72661;-26
2023/12/02 01:50:50;;;;;;;31.70;16.90;;;;;;;-0.60;87.55;97879.48;109152;1253;59230;-26
2023/12/02 01:53:17;;;;;;;25.30;12.50;;;;;;;-0.66;88.17;97881.15;109254;1253;58741;-26
2023/12/02 01:55:45;;;;;;;32.40;16.20;;;;;;;-0.18;86.61;97888.90;109415;1253;72076;-26
2023/12/02 01:58:13;;;;;;;35.80;18.00;;;;;;;0.09;84.51;97894.93;109380;1253;73192;-26
2023/12/02 02:00:41;;;;;;;34.00;17.40;;;;;;;0.24;83.85;97888.42;109225;1253;72632;-26
2023/12/02 02:03:09;;;;;;;34.10;15.70;;;;;;;-0.01;84.83;97889.35;109249;1253;60024;-26
2023/12/02 02:05:36;;;;;;;39.30;17.30;;;;;;;-0.30;85.95;97892.00;109406;1253;59998;-26
2023/12/02 02:08:04;;;;;;;32.70;16.00;;;;;;;-0.25;85.95;97893.39;109194;1257;71853;-27
2023/12/02 02:10:32;;;;;;;28.70;13.70;;;;;;;-0.09;85.55;97900.02;109401;1253;74337;-27
2023/12/02 02:12:59;;;;;;;29.50;14.20;;;;;;;-0.38;86.26;97900.77;109246;1253;72666;-26
2023/12/02 02:15:27;;;;;;;21.10;11.10;;;;;;;-0.53;87.43;97907.21;109372;1253;58895;-27
2023/12/02 02:17:54;;;;;;;29.80;14.80;;;;;;;-0.17;86.47;97914.13;109420;1253;58881;-27
2023/12/02 02:20:22;;;;;;;26.90;11.50;;;;;;;0.03;84.97;97907.73;109372;1255;72979;-27
2023/12/02 02:22:50;;;;;;;44.20;22.10;;;;;;;0.18;84.27;97896.84;109405;1253;74330;-28
2023/12/02 02:25:17;;;;;;;49.10;24.90;;;;;;;-0.15;85.11;97896.77;109395;1253;70903;-28
2023/12/02 02:27:45;;;;;;;39.80;20.10;;;;;;;-0.34;86.38;97893.19;109363;1253;59237;-28
2023/12/02 02:30:13;;;;;;;49.50;25.70;;;;;;;-0.39;87.04;97895.86;109193;1254;58786;-28
2023/12/02 02:32:41;;;;;;;41.30;21.80;;;;;;;-0.63;87.83;97890.20;109155;1257;71768;-28
2023/12/02 02:35:09;;;;;;;38.70;17.50;;;;;;;-0.62;88.71;97887.22;109365;1254;73064;-28
2023/12/02 02:37:36;;;;;;;20.80;10.20;;;;;;;-0.86;89.64;97887.83;109347;1254;72660;-28
2023/12/02 02:40:05;;;;;;;27.00;13.40;;;;;;;-0.47;89.23;97884.04;109332;1255;59264;-28
2023/12/02 02:42:33;;;;;;;23.70;12.90;;;;;;;0.00;85.87;97887.25;109157;1254;60125;-29
2023/12/02 02:45:01;;;;;;;21.20;11.60;;;;;;;-0.31;86.94;97896.30;109192;1254;73823;-29
2023/12/02 02:47:28;;;;;;;27.70;15.10;;;;;;;-0.42;87.46;97901.82;109369;1254;73165;-29
2023/12/02 02:49:56;;;;;;;23.50;13.00;;;;;;;-0.48;88.10;97904.23;109162;1254;72727;-29
2023/12/02 02:52:24;;;;;;;22.40;11.90;;;;;;;-0.51;88.57;97904.71;109341;1254;59247;-28
2023/12/02 02:54:51;;;;;;;24.40;13.00;;;;;;;-0.64;88.72;97899.26;109388;1253;60033;-29
2023/12/02 02:57:22;;;;;;;27.70;13.10;;;;;;;-0.63;89.26;97894.95;109356;1254;72664;-29
2023/12/02 02:59:50;;;;;;;21.00;10.70;;;;;;;-0.96;90.36;97893.60;109172;1254;74331;-29
2023/12/02 03:06:24;;;;;;;20.80;11.20;;;;;;;-0.44;88.53;97889.87;109327;1254;58902;-30
2023/12/02 03:08:52;;;;;;;24.30;11.50;;;;;;;-0.78;89.51;97887.40;109191;1256;60040;-30
2023/12/02 03:11:20;;;;;;;22.70;11.70;;;;;;;-0.79;90.31;97892.54;109350;1254;72861;-30
2023/12/02 03:13:47;;;;;;;21.70;11.80;;;;;;;-0.80;90.43;97894.34;109298;1254;74273;-30
2023/12/02 03:16:15;;;;;;;27.50;12.60;;;;;;;-0.94;90.80;97895.56;109320;1254;72681;-30
2023/12/02 03:18:42;;;;;;;17.50;9.40;;;;;;;-1.21;92.68;97889.63;109163;1254;59642;-30
2023/12/02 03:21:10;;;;;;;22.90;11.30;;;;;;;-0.90;92.21;97890.58;109436;1254;60058;-30
2023/12/02 03:23:38;;;;;;;18.10;9.90;;;;;;;-0.70;90.48;97888.20;109155;1254;72653;-30
2023/12/02 03:26:06;;;;;;;16.10;9.30;;;;;;;-0.42;89.41;97888.36;109192;1253;73067;-30
2023/12/02 03:28:33;;;;;;;17.10;9.40;;;;;;;-0.32;88.07;97881.02;109106;1255;71430;-30
2023/12/02 03:31:01;;;;;;;19.00;9.60;;;;;;;-0.45;88.39;97877.45;109136;1256;58786;-30
2023/12/02 03:33:29;;;;;;;21.40;10.80;;;;;;;-0.84;90.09;97881.39;109153;1256;60039;-30
2023/12/02 03:35:56;;;;;;;20.40;10.70;;;;;;;-0.68;90.34;97878.17;109163;1256;72593;-30
2023/12/02 03:38:24;;;;;;;18.30;8.00;;;;;;;-0.73;90.25;97877.27;109177;1255;73111;-30
2023/12/02 03:40:52;;;;;;;16.60;9.00;;;;;;;-0.42;89.17;97870.30;109095;1258;71468;-30
2023/12/02 03:43:20;;;;;;;17.60;9.40;;;;;;;0.08;86.85;97867.17;109253;1256;59100;-30
2023/12/02 03:45:47;;;;;;;18.20;9.50;;;;;;;0.43;85.01;97863.10;109179;1255;58799;-29
2023/12/02 03:48:15;;;;;;;21.90;11.00;;;;;;;-0.00;85.34;97874.11;109136;1256;72992;-29
2023/12/02 03:50:43;;;;;;;18.60;10.20;;;;;;;-0.27;86.90;97873.71;109148;1256;74321;-29
2023/12/02 03:53:10;;;;;;;19.80;10.70;;;;;;;-0.58;88.48;97882.08;109176;1255;71383;-28
2023/12/02 03:55:38;;;;;;;19.90;10.80;;;;;;;-0.64;89.58;97880.20;109126;1256;59265;-28
2023/12/02 03:58:06;;;;;;;14.10;7.10;;;;;;;-1.26;92.23;97881.92;109177;1256;60040;-27
2023/12/02 04:00:34;;;;;;;20.10;10.50;;;;;;;-0.69;91.72;97883.69;109170;1256;72809;-27
2023/12/02 04:03:02;;;;;;;23.60;12.20;;;;;;;-0.28;88.61;97870.89;109141;1256;73330;-27
2023/12/02 04:05:29;;;;;;;22.10;11.60;;;;;;;-0.34;88.24;97869.17;109148;1255;72633;-27
2023/12/02 04:07:57;;;;;;;21.00;11.10;;;;;;;-0.18;87.85;97865.05;109138;1256;59279;-27
2023/12/02 04:10:25;;;;;;;21.10;11.00;;;;;;;-0.14;86.92;97861.26;109191;1256;58726;-28
2023/12/02 04:12:53;;;;;;;20.70;10.60;;;;;;;-0.46;88.33;97857.55;109141;1256;72687;-28
2023/12/02 04:15:21;;;;;;;22.20;12.00;;;;;;;-0.55;88.95;97857.38;109198;1256;74356;-28
2023/12/02 04:17:48;;;;;;;18.00;8.60;;;;;;;-0.93;90.34;97858.88;109093;1256;71749;-28
2023/12/02 04:20:16;;;;;;;18.30;9.70;;;;;;;-0.49;90.13;97864.88;109144;1256;58842;-28
2023/12/02 04:22:44;;;;;;;21.30;10.70;;;;;;;-0.12;87.38;97867.94;109159;1256;60092;-28
2023/12/02 04:25:11;;;;;;;19.30;10.90;;;;;;;0.16;85.94;97867.04;109159;1256;73846;-29
2023/12/02 04:27:41;;;;;;;21.20;12.20;;;;;;;0.27;84.69;97862.48;109177;1257;72195;-29
2023/12/02 04:30:09;;;;;;;17.30;9.20;;;;;;;0.06;85.26;97861.64;109099;1256;72548;-28
2023/12/02 04:32:37;;;;;;;15.90;9.40;;;;;;;-0.31;86.96;97868.33;109045;1257;58834;-28
2023/12/02 04:35:06;;;;;;;21.30;9.50;;;;;;;-0.42;87.27;97870.10;109104;1257;60025;-28
2023/12/02 04:37:33;;;;;;;22.60;11.60;;;;;;;-0.59;88.52;97873.06;108968;1257;73959;-28
2023/12/02 04:40:04;;;;;;;16.70;9.00;;;;;;;-0.71;89.10;97874.38;109089;1257;73049;-28
2023/12/02 04:42:32;;;;;;;23.20;10.60;;;;;;;-0.21;88.53;97881.38;109032;1257;72618;-29
2023/12/02 04:45:00;;;;;;;20.20;11.10;;;;;;;0.30;85.72;97878.70;109076;1257;58816;-28
2023/12/02 04:47:27;;;;;;;14.50;8.10;;;;;;;0.72;83.32;97883.81;109076;1257;58788;-28
2023/12/02 04:49:55;;;;;;;16.10;9.10;;;;;;;0.62;82.65;97880.27;109078;1257;73838;-28
2023/12/02 04:52:23;;;;;;;22.50;10.50;;;;;;;0.42;82.98;97877.98;109073;1257;74385;-28
2023/12/02 04:54:51;;;;;;;19.60;9.10;;;;;;;0.34;83.32;97872.31;109078;1257;72818;-29
2023/12/02 04:57:18;;;;;;;17.50;9.40;;;;;;;0.19;83.61;97871.81;109032;1257;58836;-28
2023/12/02 04:59:47;;;;;;;20.60;10.60;;;;;;;0.01;84.15;97869.44;109108;1256;58806;-28
2023/12/02 05:02:15;;;;;;;15.70;7.90;;;;;;;-0.14;84.99;97867.08;109034;1257;73843;-28
2023/12/02 05:04:43;;;;;;;17.30;9.50;;;;;;;0.37;84.59;97864.66;109092;1257;74338;-28
2023/12/02 05:07:10;;;;;;;17.60;9.30;;;;;;;0.85;82.12;97864.02;109042;1257;71453;-29
2023/12/02 05:09:38;;;;;;;22.00;11.80;;;;;;;1.01;81.06;97862.58;109038;1257;58789;-29
2023/12/02 05:12:07;;;;;;;18.40;8.70;;;;;;;0.98;80.77;97859.82;109087;1257;59990;-29
2023/12/02 05:14:35;;;;;;;16.70;9.20;;;;;;;0.68;81.22;97859.06;109039;1257;73844;-28
2023/12/02 05:17:02;;;;;;;21.20;9.60;;;;;;;0.47;81.83;97858.77;109057;1257;72195;-28
2023/12/02 05:19:30;;;;;;;19.00;9.10;;;;;;;0.26;82.51;97858.50;109040;1257;72739;-28
2023/12/02 05:21:58;;;;;;;18.20;9.20;;;;;;;0.07;83.32;97860.38;109070;1257;58913;-28
2023/12/02 05:24:25;;;;;;;9.20;4.70;;;;;;;0.11;83.66;97857.80;109071;1257;58819;-28
2023/12/02 05:26:53;;;;;;;13.90;7.50;;;;;;;0.81;82.26;97859.67;109046;1258;73800;-29
2023/12/02 05:29:23;;;;;;;18.80;9.80;;;;;;;1.14;80.52;97858.84;108996;1257;74516;-29
2023/12/02 05:31:54;;;;;;;19.80;9.10;;;;;;;1.09;80.03;97859.72;109013;1257;71451;-28
2023/12/02 05:34:24;;;;;;;17.00;8.30;;;;;;;0.91;80.37;97859.42;108964;1256;58909;-28
2023/12/02 05:36:53;;;;;;;12.60;6.50;;;;;;;0.68;80.82;97857.88;109084;1257;60096;-28
2023/12/02 05:39:23;;;;;;;16.30;8.70;;;;;;;0.37;81.70;97857.63;109013;1257;72470;-28
2023/12/02 05:41:53;;;;;;;16.30;8.30;;;;;;;0.10;82.87;97860.72;108996;1257;74555;-28
2023/12/02 05:44:23;;;;;;;22.40;10.40;;;;;;;-0.07;83.73;97862.23;108971;1257;71476;-28
2023/12/02 05:46:53;;;;;;;14.70;7.20;;;;;;;-0.07;84.09;97858.98;108990;1256;60885;-28
2023/12/02 05:49:23;;;;;;;11.80;6.30;;;;;;;0.56;82.84;97857.55;108998;1261;60105;-29
2023/12/02 05:51:54;;;;;;;11.80;5.70;;;;;;;0.80;81.27;97859.05;108909;1257;72664;-28
2023/12/02 05:54:25;;;;;;;17.70;9.10;;;;;;;0.81;81.00;97858.33;109045;1257;74317;-28
2023/12/02 05:56:56;;;;;;;16.40;9.00;;;;;;;0.60;81.24;97859.71;108965;1257;72693;-28
2023/12/02 05:59:27;;;;;;;18.90;9.60;;;;;;;0.36;82.10;97855.69;108996;1261;58852;-29
2023/12/02 06:01:57;;;;;;;12.20;6.10;;;;;;;0.18;82.77;97856.87;109035;1257;58759;-28
2023/12/02 06:04:28;;;;;;;10.50;5.90;;;;;;;-0.02;83.40;97857.64;109025;1257;73867;-29
2023/12/02 06:06:59;;;;;;;12.70;7.10;;;;;;;-0.12;84.43;97861.28;108957;1257;74353;-28
2023/12/02 06:09:29;;;;;;;21.50;11.40;;;;;;;0.54;83.24;97858.71;108969;1257;72888;-29
2023/12/02 06:11:59;;;;;;;15.40;9.10;;;;;;;0.97;81.11;97859.52;108993;1257;60519;-29
2023/12/02 06:14:29;;;;;;;14.80;6.80;;;;;;;0.90;80.69;97856.89;109007;1257;60059;-29
2023/12/02 06:17:03;;;;;;;18.10;8.70;;;;;;;0.68;81.31;97862.82;109091;1257;72283;-29
2023/12/02 06:19:33;;;;;;;17.20;9.90;;;;;;;0.49;81.71;97867.38;109021;1257;74354;-28
2023/12/02 06:22:03;;;;;;;13.80;7.30;;;;;;;0.28;82.30;97863.78;109059;1257;73179;-28
2023/12/02 06:24:33;;;;;;;13.10;8.10;;;;;;;0.03;83.58;97865.54;108979;1257;59266;-29
2023/12/02 06:27:02;;;;;;;14.30;7.80;;;;;;;-0.12;84.27;97862.67;109023;1257;58878;-29
2023/12/02 06:37:07;;;;;;;17.70;8.10;;;;;;;0.93;80.82;97855.89;102613;1303;600246;-29
2023/12/02 06:39:35;;;;;;;21.70;11.10;;;;;;;0.65;81.06;97853.46;104827;1266;61190;-30
2023/12/02 06:42:03;;;;;;;13.40;6.80;;;;;;;0.45;81.73;97849.02;104844;1272;61263;-29
2023/12/02 06:44:31;;;;;;;13.90;8.70;;;;;;;0.13;83.16;97841.40;104873;1267;72198;-29
2023/12/02 06:46:59;;;;;;;14.40;8.10;;;;;;;-0.02;84.00;97838.22;104870;1267;74730;-30
2023/12/02 06:49:26;;;;;;;15.70;8.30;;;;;;;0.33;83.95;97839.25;104826;1270;71699;-30
2023/12/02 06:51:55;;;;;;;16.70;9.00;;;;;;;0.96;81.74;97833.45;101058;1269;5117333;-29
2023/12/02 07:02:02;;;;;;;13.60;8.30;;;;;;;0.51;82.13;97822.83;103178;1284;600191;-27
2023/12/02 07:04:30;;;;;;;16.60;8.80;;;;;;;0.32;82.51;97823.94;105681;1254;61075;-28
2023/12/02 07:14:36;;;;;;;13.90;8.00;;;;;;;1.17;79.80;97833.69;102727;1291;600385;-30
2023/12/02 07:17:05;;;;;;;10.10;5.60;;;;;;;0.92;80.27;97833.00;104828;1264;61647;-30
2023/12/02 07:19:32;;;;;;;13.30;7.30;;;;;;;0.66;80.97;97827.42;104885;1264;61039;-29
2023/12/02 07:22:00;;;;;;;14.50;8.30;;;;;;;0.33;82.26;97819.65;104844;1273;72230;-29
2023/12/02 07:24:28;;;;;;;9.40;5.10;;;;;;;0.14;83.23;97809.99;104932;1270;73098;-29
2023/12/02 07:26:56;;;;;;;14.50;7.60;;;;;;;0.48;83.00;97813.44;104837;1270;70392;-29
2023/12/02 07:29:24;;;;;;;11.20;6.30;;;;;;;1.05;80.90;97818.42;102306;1270;3681709;-30
2023/12/02 07:32:11;;;;;;;10.70;7.30;;;;;;;1.14;79.85;97818.88;104937;1268;61125;-29
2023/12/02 07:34:39;;;;;;;14.40;8.70;;;;;;;0.96;79.97;97813.34;105248;1270;70975;-29
2023/12/02 07:37:07;;;;;;;9.30;5.50;;;;;;;0.69;80.78;97814.26;105207;1261;74303;-31
2023/12/02 07:39:35;;;;;;;11.90;6.60;;;;;;;0.47;81.86;97806.71;105217;1263;72624;-29
2023/12/02 07:42:03;;;;;;;13.80;7.00;;;;;;;0.20;82.53;97797.84;105330;1266;61183;-29
2023/12/02 07:44:31;;;;;;;7.00;4.80;;;;;;;0.19;83.67;97798.63;105230;1261;61136;-29
2023/12/02 07:46:59;;;;;;;5.80;3.70;;;;;;;0.81;81.98;97805.33;105234;1266;73449;-29
2023/12/02 07:49:26;;;;;;;11.90;6.40;;;;;;;1.04;80.52;97809.02;105227;1261;73064;-30
2023/12/02 07:51:54;;;;;;;10.60;5.90;;;;;;;1.02;80.28;97821.96;105178;1261;71708;-29
2023/12/02 07:54:22;;;;;;;8.40;5.10;;;;;;;0.78;80.81;97821.08;105197;1266;61212;-29
2023/12/02 07:56:50;;;;;;;13.10;7.10;;;;;;;0.55;81.55;97820.71;105247;1261;61029;-29
2023/12/02 07:59:17;;;;;;;12.10;7.30;;;;;;;0.32;82.53;97816.29;105218;1267;73075;-30
2023/12/02 08:01:45;;;;;;;6.70;4.50;;;;;;;0.10;83.75;97806.50;105168;1267;74439;-28
2023/12/02 08:04:13;;;;;;;10.50;6.80;;;;;;;0.52;83.54;97810.14;105285;1266;72651;-28
2023/12/02 08:06:41;;;;;;;8.70;4.90;;;;;;;0.85;81.80;97804.21;105209;1265;61272;-28
2023/12/02 08:09:09;;;;;;;7.30;4.40;;;;;;;0.91;81.23;97802.70;105194;1261;61105;-28
2023/12/02 08:11:36;;;;;;;10.00;6.10;;;;;;;0.75;81.46;97800.94;105195;1267;71882;-28
2023/12/02 08:14:04;;;;;;;13.40;7.40;;;;;;;0.51;82.13;97793.63;105176;1268;74394;-28
2023/12/02 08:16:32;;;;;;;18.00;8.90;;;;;;;0.29;83.22;97789.48;105158;1266;72713;-28
2023/12/02 08:26:41;;;;;;;6.20;4.50;;;;;;;0.79;81.93;97809.56;102596;1292;600124;-27
2023/12/02 08:29:09;;;;;;;6.60;4.50;;;;;;;0.56;82.40;97803.05;104838;1267;61126;-29
2023/12/02 08:39:20;;;;;;;7.20;4.40;;;;;;;1.12;81.03;97805.84;102677;1290;600044;-27
2023/12/02 08:46:16;;;;;;;11.10;6.30;;;;;;;0.57;83.21;97812.41;102655;1293;601007;-26
2023/12/02 08:48:45;;;;;;;9.00;5.50;;;;;;;0.43;84.01;97822.33;104622;1264;61168;-28
2023/12/02 08:58:59;;;;;;;12.40;6.10;;;;;;;1.20;81.64;97815.78;102718;1289;599988;-25
2023/12/02 09:01:27;;;;;;;8.80;5.20;;;;;;;0.94;82.37;97811.20;104900;1270;61177;-26
2023/12/02 09:03:55;;;;;;;13.10;7.10;;;;;;;0.78;83.06;97811.64;104921;1269;61276;-27
2023/12/02 09:06:22;;;;;;;13.70;7.60;;;;;;;0.58;84.13;97810.84;108708;1263;72234;-25
2023/12/02 09:08:51;;;;;;;6.30;4.10;;;;;;;0.45;84.73;97823.17;108714;1263;74349;-26
2023/12/02 09:11:19;;;;;;;8.60;4.90;;;;;;;0.80;84.20;97828.30;108427;1264;71312;-27
2023/12/02 09:13:47;;;;;;;9.70;6.20;;;;;;;1.25;82.78;97824.67;106215;1262;59494;-28
2023/12/02 09:16:28;;;;;;;13.40;6.00;;;;;;;1.16;82.48;97816.38;108743;1263;58759;-28
2023/12/02 09:18:55;;;;;;;16.50;8.90;;;;;;;0.99;82.78;97814.98;108762;1264;71253;-28
2023/12/02 09:21:41;;;;;;;14.50;7.10;;;;;;;0.70;83.88;97806.86;108831;1262;73583;-28
2023/12/02 09:24:36;;;;;;;9.60;5.40;;;;;;;0.51;84.94;97792.42;108671;1263;72693;-28
2023/12/02 09:27:08;;;;;;;9.80;6.60;;;;;;;1.02;83.99;97784.56;108682;1264;58766;-28
2023/12/02 09:29:37;;;;;;;10.80;6.90;;;;;;;1.39;82.27;97779.48;108661;1264;60050;-28
2023/12/02 09:32:29;;;;;;;7.90;5.50;;;;;;;1.33;82.19;97767.40;108663;1263;73143;-28
2023/12/02 09:35:00;;;;;;;10.40;6.90;;;;;;;1.20;82.38;97765.83;108661;1263;73099;-28
2023/12/02 09:37:43;;;;;;;7.00;4.80;;;;;;;0.95;83.19;97777.33;108645;1264;72746;-28
2023/12/02 09:40:20;;;;;;;8.70;5.10;;;;;;;0.67;84.70;97777.32;108796;1262;58827;-27
2023/12/02 09:42:51;;;;;;;5.80;4.10;;;;;;;0.86;84.93;97773.73;108789;1264;60009;-28
2023/12/02 09:45:20;;;;;;;7.30;3.50;;;;;;;1.35;82.82;97763.00;108786;1264;73034;-28
2023/12/02 09:47:58;;;;;;;7.90;4.90;;;;;;;1.35;82.32;97751.71;108664;1262;74559;-28
2023/12/02 09:50:27;;;;;;;7.90;5.60;;;;;;;1.13;82.80;97747.45;108626;1269;72660;-28
2023/12/02 09:52:58;;;;;;;6.20;4.20;;;;;;;1.02;83.32;97742.51;108666;1262;59392;-27
2023/12/02 09:56:03;;;;;;;6.10;3.80;;;;;;;0.80;83.95;97742.02;108848;1263;58788;-27
2023/12/02 09:58:38;;;;;;;5.70;3.60;;;;;;;1.00;84.26;97742.80;108716;1262;73069;-27
2023/12/02 10:01:23;;;;;;;7.70;5.20;;;;;;;1.41;82.24;97737.86;108724;1263;74356;-27
2023/12/02 10:04:13;;;;;;;6.40;4.40;;;;;;;1.48;81.90;97737.19;108644;1263;71433;-27
2023/12/02 10:06:56;;;;;;;8.40;5.40;;;;;;;1.18;82.37;97736.38;108712;1263;58803;-28
2023/12/02 10:09:30;;;;;;;7.50;5.00;;;;;;;0.95;83.13;97736.27;108622;1264;60027;-27
2023/12/02 10:12:22;;;;;;;6.70;4.30;;;;;;;0.75;84.24;97729.01;108767;1263;73043;-27
2023/12/02 10:14:55;;;;;;;8.00;3.90;;;;;;;1.02;84.03;97723.18;108779;1263;74288;-27
2023/12/02 10:17:23;;;;;;;7.00;4.30;;;;;;;1.32;82.79;97721.15;108756;1262;72647;-26
2023/12/02 10:19:52;;;;;;;8.20;4.90;;;;;;;1.35;82.38;97716.30;108696;1262;61002;-27
2023/12/02 10:22:23;;;;;;;9.80;5.30;;;;;;;1.09;83.05;97719.34;108692;1262;60037;-26
2023/12/02 10:24:50;;;;;;;8.10;4.80;;;;;;;0.96;83.64;97726.60;108715;1262;75232;-26
2023/12/02 10:27:18;;;;;;;3.50;3.10;;;;;;;0.67;84.75;97729.11;108815;1263;73287;-26
2023/12/02 10:30:11;;;;;;;5.40;3.50;;;;;;;0.96;84.64;97720.52;108778;1264;71665;-26
2023/12/02 10:32:48;;;;;;;5.90;3.40;;;;;;;1.09;83.79;97711.98;108484;1266;60036;-26
2023/12/02 10:35:17;;;;;;;3.20;2.60;;;;;;;1.03;84.06;97726.36;108658;1267;60051;-26
2023/12/02 10:37:45;;;;;;;6.00;3.70;;;;;;;0.84;84.59;97745.16;108651;1263;73031;-26
2023/12/02 10:40:14;;;;;;;4.50;2.50;;;;;;;0.69;85.34;97747.27;108665;1264;74270;-26
2023/12/02 10:42:52;;;;;;;5.90;3.50;;;;;;;0.89;85.52;97744.20;108798;1263;72075;-26
2023/12/02 10:45:19;;;;;;;4.70;3.80;;;;;;;1.28;83.87;97722.25;108622;1265;60093;-26
2023/12/02 10:47:47;;;;;;;5.50;3.40;;;;;;;1.44;82.87;97713.33;108818;1262;60019;-26
2023/12/02 10:50:16;;;;;;;3.90;3.20;;;;;;;1.29;83.11;97711.05;108678;1263;73201;-26
2023/12/02 10:52:56;;;;;;;5.20;3.60;;;;;;;0.96;84.18;97708.90;108642;1264;73240;-26
2023/12/02 10:55:25;;;;;;;6.80;4.60;;;;;;;0.72;85.41;97710.38;108612;1263;71798;-26
2023/12/02 10:57:53;;;;;;;2.90;2.20;;;;;;;0.67;86.27;97713.56;108592;1267;60889;-26
2023/12/02 11:00:21;;;;;;;4.10;3.00;;;;;;;1.13;84.79;97714.79;108658;1263;58744;-26
2023/12/02 11:03:00;;;;;;;5.90;3.90;;;;;;;1.34;83.54;97696.19;108676;1263;73023;-26
2023/12/02 11:05:42;;;;;;;5.80;3.70;;;;;;;1.24;83.61;97691.36;108654;1264;74311;-26
2023/12/02 11:08:18;;;;;;;3.90;2.40;;;;;;;0.98;84.39;97695.43;108659;1263;72678;-26
2023/12/02 11:10:52;;;;;;;3.90;3.10;;;;;;;0.68;85.60;97685.86;108648;1262;58815;-25
2023/12/02 11:13:20;;;;;;;3.40;2.40;;;;;;;0.69;86.43;97683.20;108620;1263;58980;-26
2023/12/02 11:16:03;;;;;;;5.80;3.70;;;;;;;1.14;85.12;97677.49;108638;1263;71820;-26
2023/12/02 11:18:49;;;;;;;3.90;3.20;;;;;;;1.21;83.91;97673.77;108668;1264;73551;-26
2023/12/02 11:21:32;;;;;;;3.30;2.20;;;;;;;1.02;84.31;97674.81;108681;1263;72651;-26
2023/12/02 11:24:31;;;;;;;3.80;3.30;;;;;;;0.83;85.48;97684.09;108635;1267;58841;-26
2023/12/02 11:27:20;;;;;;;4.70;3.10;;;;;;;0.61;86.37;97687.67;108750;1262;60009;-26
2023/12/02 11:30:11;;;;;;;4.80;3.20;;;;;;;0.84;85.99;97691.35;108657;1263;71777;-26
2023/12/02 11:32:46;;;;;;;6.30;3.30;;;;;;;1.11;84.92;97696.69;108756;1263;73038;-25
2023/12/02 11:35:27;;;;;;;8.10;3.80;;;;;;;0.98;84.76;97699.70;108625;1264;71639;-26
2023/12/02 11:37:57;;;;;;;3.60;2.70;;;;;;;0.84;85.39;97693.42;108542;1266;58922;-26
2023/12/02 11:40:43;;;;;;;4.00;2.70;;;;;;;0.65;86.27;97684.30;108644;1263;60075;-25
2023/12/02 11:43:40;;;;;;;4.60;2.90;;;;;;;0.83;86.43;97675.50;108649;1263;73033;-26
2023/12/02 11:46:14;;;;;;;6.10;2.40;;;;;;;1.28;84.58;97669.39;108517;1263;73236;-26
2023/12/02 11:48:47;;;;;;;4.20;2.60;;;;;;;1.26;84.30;97665.80;108355;1263;71272;-26
2023/12/02 11:51:20;;;;;;;5.70;3.50;;;;;;;1.02;84.93;97658.38;108629;1264;59404;-26
2023/12/02 11:53:48;;;;;;;4.00;2.10;;;;;;;0.76;85.96;97660.77;108566;1263;60078;-26
2023/12/02 11:56:17;;;;;;;3.30;1.90;;;;;;;0.73;86.85;97664.05;108751;1263;72833;-26
2023/12/02 11:58:50;;;;;;;4.70;2.30;;;;;;;1.14;85.72;97655.98;108624;1267;74303;-26
2023/12/02 12:01:18;;;;;;;4.10;2.00;;;;;;;1.28;84.29;97646.18;108610;1266;72740;-25
2023/12/02 12:04:21;;;;;;;3.10;1.80;;;;;;;1.14;84.27;97646.00;108779;1266;58831;-26
2023/12/02 12:07:07;;;;;;;3.80;2.60;;;;;;;0.94;85.46;97644.91;108619;1265;58870;-25
2023/12/02 12:09:44;;;;;;;3.60;2.50;;;;;;;0.76;86.34;97650.67;108759;1264;71791;-25
2023/12/02 12:12:12;;;;;;;2.60;2.20;;;;;;;1.17;85.31;97639.31;108590;1267;74351;-26
2023/12/02 12:14:40;;;;;;;4.00;2.60;;;;;;;1.45;83.63;97628.45;108508;1265;72469;-25
2023/12/02 12:17:07;;;;;;;3.50;1.80;;;;;;;1.52;82.97;97647.52;108646;1265;58889;-25
2023/12/02 12:19:35;;;;;;;4.80;3.20;;;;;;;1.30;83.52;97625.70;108705;1265;59105;-25
2023/12/02 12:22:04;;;;;;;4.50;3.00;;;;;;;1.04;84.30;97645.66;108762;1265;71806;-25
2023/12/02 12:24:31;;;;;;;4.40;2.80;;;;;;;0.83;85.45;97643.94;108775;1264;73362;-25
2023/12/02 12:26:59;;;;;;;2.70;2.00;;;;;;;0.99;85.46;97642.42;108734;1269;72684;-25
2023/12/02 12:29:26;;;;;;;2.40;1.80;;;;;;;1.41;83.59;97648.24;108575;1265;60188;-25
2023/12/02 12:31:56;;;;;;;2.70;1.90;;;;;;;1.48;82.99;97630.46;108594;1269;59025;-25